Time;durP1;ratioP1;P1;durP2;ratioP2;P2;SDS_P1;SDS_P2;PMS_P1;PMS_P2;Temp;Humidity;BMP_temperature;BMP_pressure;BME280_temperature;BME280_humidity;BME280_pressure;Samples;Min_cycle;Max_cycle;Signal;HPM_P1;HPM_P2
2021/07/17 00:02:12;;;;;;;13.45;9.80;;;;;;;22.20;74.28;99311.48;1724922;82;21094;-67
2021/07/17 00:04:39;;;;;;;11.35;9.90;;;;;;;22.20;74.29;99316.21;1745840;82;21026;-67
2021/07/17 00:07:07;;;;;;;11.50;9.55;;;;;;;22.19;74.54;99315.41;1741415;82;21071;-67
2021/07/17 00:09:33;;;;;;;13.88;10.15;;;;;;;22.20;74.57;99317.02;1742215;82;20956;-68
2021/07/17 00:11:59;;;;;;;13.08;10.32;;;;;;;22.25;74.49;99317.30;1741083;82;21083;-67
2021/07/17 00:14:27;;;;;;;11.97;9.58;;;;;;;22.26;74.51;99316.96;1738940;82;21035;-67
2021/07/17 00:16:55;;;;;;;13.03;8.98;;;;;;;22.27;74.70;99310.84;1746673;82;21023;-67
2021/07/17 00:19:22;;;;;;;11.78;10.32;;;;;;;22.27;74.77;99309.45;1737013;82;20960;-68
2021/07/17 00:21:48;;;;;;;12.43;9.85;;;;;;;22.24;74.66;99312.95;1734767;82;21026;-68
2021/07/17 00:24:15;;;;;;;13.15;10.15;;;;;;;22.19;74.57;99316.78;1736601;82;21439;-67
2021/07/17 00:26:41;;;;;;;13.60;9.65;;;;;;;22.12;74.73;99311.64;1743292;82;21043;-67
2021/07/17 00:29:08;;;;;;;11.80;10.03;;;;;;;22.13;74.96;99310.49;1734761;82;21015;-67
2021/07/17 00:31:34;;;;;;;11.00;9.83;;;;;;;22.16;75.14;99314.73;1735740;81;21058;-67
2021/07/17 00:34:01;;;;;;;11.97;10.35;;;;;;;22.20;75.18;99318.41;1725439;82;20983;-67
2021/07/17 00:36:27;;;;;;;13.62;9.55;;;;;;;22.25;75.21;99316.73;1743415;82;21035;-67
2021/07/17 00:38:54;;;;;;;17.95;10.60;;;;;;;22.28;75.07;99309.69;1733866;82;21454;-67
2021/07/17 00:41:20;;;;;;;16.17;11.30;;;;;;;22.27;74.67;99308.06;1733591;82;21047;-67
2021/07/17 00:43:47;;;;;;;13.13;10.18;;;;;;;22.19;74.49;99314.02;1733969;82;21450;-67
2021/07/17 00:46:13;;;;;;;14.35;10.48;;;;;;;22.13;74.63;99300.79;1724864;82;21133;-67
2021/07/17 00:48:40;;;;;;;13.70;10.95;;;;;;;22.13;74.88;99307.14;1727257;82;20987;-67
2021/07/17 00:51:07;;;;;;;14.80;10.50;;;;;;;22.16;75.04;99304.23;1734664;82;21946;-67
2021/07/17 00:53:34;;;;;;;11.97;9.83;;;;;;;22.09;74.91;99301.28;1717109;82;21032;-67
2021/07/17 00:56:00;;;;;;;16.48;10.00;;;;;;;22.03;74.96;99298.56;1705858;82;20987;-67
2021/07/17 00:58:30;;;;;;;14.50;9.73;;;;;;;22.00;74.99;99299.28;1724565;82;21380;-67
2021/07/17 01:00:56;;;;;;;13.85;10.25;;;;;;;22.00;75.20;99294.52;1733099;82;21588;-67
2021/07/17 01:03:22;;;;;;;12.10;10.10;;;;;;;22.01;75.23;99303.06;1750404;82;21030;-67
2021/07/17 01:05:49;;;;;;;13.18;10.55;;;;;;;21.99;75.13;99305.41;1735687;82;21031;-67
2021/07/17 01:08:19;;;;;;;12.18;10.63;;;;;;;21.99;75.23;99297.66;1734339;82;20963;-67
2021/07/17 01:10:47;;;;;;;12.40;10.25;;;;;;;22.02;75.47;99295.56;1735571;82;21110;-67
2021/07/17 01:13:13;;;;;;;13.60;9.75;;;;;;;22.00;75.37;99299.28;1737290;82;21470;-67
2021/07/17 01:15:41;;;;;;;12.82;10.50;;;;;;;22.00;75.61;99299.28;1676167;85;21134;-67
2021/07/17 01:18:07;;;;;;;16.42;10.93;;;;;;;22.01;75.57;99303.06;1727870;82;20991;-67
2021/07/17 01:20:34;;;;;;;12.33;10.60;;;;;;;22.02;75.43;99299.14;1745896;82;21015;-67
2021/07/17 01:23:01;;;;;;;12.68;10.25;;;;;;;22.02;75.72;99304.69;1733618;82;21003;-67
2021/07/17 01:25:29;;;;;;;13.00;11.00;;;;;;;21.99;75.78;99306.79;1749012;82;21074;-67
2021/07/17 01:27:57;;;;;;;14.23;10.93;;;;;;;21.97;75.58;99307.71;1740457;82;21584;-67
2021/07/17 01:30:27;;;;;;;12.28;11.00;;;;;;;21.96;75.39;99313.63;1738705;82;21023;-67
2021/07/17 01:32:54;;;;;;;13.85;11.03;;;;;;;21.91;75.33;99304.98;1727637;82;20979;-67
2021/07/17 01:35:21;;;;;;;13.30;10.98;;;;;;;21.90;75.49;99309.46;1732175;82;21105;-67
2021/07/17 01:37:47;;;;;;;14.00;10.60;;;;;;;21.85;75.66;99299.47;1739107;82;20979;-67
2021/07/17 01:40:21;;;;;;;15.63;11.90;;;;;;;21.82;75.82;99306.50;1730149;82;21073;-68
2021/07/17 01:42:50;;;;;;;18.37;11.97;;;;;;;21.75;75.81;99309.70;1739242;82;20995;-67
2021/07/17 01:45:29;;;;;;;12.68;11.38;;;;;;;21.71;76.10;99306.84;1738731;82;21093;-67
2021/07/17 01:47:56;;;;;;;14.38;11.80;;;;;;;21.70;76.33;99304.41;1724036;82;20999;-66
2021/07/17 01:50:28;;;;;;;16.05;12.47;;;;;;;21.69;76.36;99303.59;1724403;82;21613;-67
2021/07/17 01:52:55;;;;;;;16.50;12.28;;;;;;;21.71;76.36;99306.03;1728677;82;21001;-67
2021/07/17 01:55:21;;;;;;;14.15;12.75;;;;;;;21.71;76.41;99303.26;1738271;82;21058;-67
2021/07/17 01:57:49;;;;;;;15.35;12.63;;;;;;;21.69;76.53;99303.59;1743978;82;20999;-67
2021/07/17 02:00:16;;;;;;;14.58;12.10;;;;;;;21.70;76.66;99305.22;1752323;82;21030;-67
2021/07/17 02:02:44;;;;;;;16.42;13.20;;;;;;;21.65;76.58;99308.23;1744002;82;21023;-67
2021/07/17 02:05:12;;;;;;;17.00;12.78;;;;;;;21.61;76.83;99308.72;1746114;82;21434;-67
2021/07/17 02:07:38;;;;;;;15.15;12.33;;;;;;;21.62;77.21;99308.14;1729836;82;21022;-67
2021/07/17 02:10:15;;;;;;;16.15;12.43;;;;;;;21.62;77.18;99308.14;1723412;83;21475;-67
2021/07/17 02:13:01;;;;;;;15.73;12.00;;;;;;;21.60;77.20;99302.16;1741153;82;21601;-67
2021/07/17 02:15:29;;;;;;;;;;;;;;;21.58;77.32;99301.13;1750269;82;21301;-67
2021/07/17 02:17:56;;;;;;;14.38;11.20;;;;;;;21.57;77.56;99305.08;1743456;82;20508;-67
2021/07/17 02:20:23;;;;;;;15.53;11.85;;;;;;;21.54;77.76;99307.75;1743524;82;21030;-67
2021/07/17 02:22:49;;;;;;;13.15;11.75;;;;;;;21.54;77.73;99304.98;1737243;82;21489;-67
2021/07/17 02:25:17;;;;;;;13.78;11.97;;;;;;;21.51;77.89;99304.28;1740355;82;21583;-67
2021/07/17 02:27:43;;;;;;;16.07;12.65;;;;;;;21.53;78.08;99302.78;1753048;82;21019;-67
2021/07/17 02:30:11;;;;;;;14.58;11.95;;;;;;;21.56;78.20;99305.41;1750834;82;20944;-67
2021/07/17 02:32:37;;;;;;;13.80;11.93;;;;;;;21.58;78.06;99301.70;1730755;82;21018;-67
2021/07/17 02:35:04;;;;;;;18.07;13.35;;;;;;;21.53;78.01;99296.44;1745343;82;21474;-67
2021/07/17 02:37:32;;;;;;;17.85;12.78;;;;;;;21.50;78.12;99298.53;1725643;82;21003;-67
2021/07/17 02:39:58;;;;;;;15.38;12.73;;;;;;;21.50;78.31;99300.73;1725588;82;20999;-67
2021/07/17 02:42:24;;;;;;;17.10;13.03;;;;;;;21.53;78.38;99300.59;1736598;82;21473;-67
2021/07/17 02:44:51;;;;;;;15.13;13.53;;;;;;;21.55;78.37;99295.48;1743269;82;21006;-67
2021/07/17 02:47:18;;;;;;;16.82;12.98;;;;;;;21.59;78.62;99297.20;1738712;82;21042;-67
2021/07/17 02:49:45;;;;;;;15.43;12.50;;;;;;;21.70;78.76;99296.09;1738385;82;20945;-67
2021/07/17 02:52:11;;;;;;;17.57;12.95;;;;;;;21.79;78.58;99292.56;1740969;82;21033;-68
2021/07/17 02:54:38;;;;;;;13.38;11.97;;;;;;;21.86;78.38;99292.75;1732483;82;21608;-67
2021/07/17 02:57:04;;;;;;;15.03;12.18;;;;;;;21.94;78.24;99297.34;1735313;82;21074;-67
2021/07/17 02:59:31;;;;;;;13.32;11.93;;;;;;;22.03;78.18;99295.22;1724359;82;20983;-67
2021/07/17 03:01:57;;;;;;;17.35;12.70;;;;;;;22.09;78.10;99295.16;1743273;82;21046;-67
2021/07/17 03:04:23;;;;;;;17.02;15.23;;;;;;;22.16;77.96;99300.87;1737659;82;21009;-67
2021/07/17 03:06:50;;;;;;;14.43;12.93;;;;;;;22.26;77.71;99305.06;1728100;82;21032;-67
2021/07/17 03:09:17;;;;;;;15.85;11.95;;;;;;;22.33;77.54;99295.53;1746684;82;20967;-67
2021/07/17 03:11:43;;;;;;;14.80;11.97;;;;;;;22.40;77.42;99293.50;1728857;81;21079;-67
2021/07/17 03:14:10;;;;;;;14.28;11.95;;;;;;;22.49;77.26;99298.28;1720652;83;20943;-67
2021/07/17 03:16:37;;;;;;;15.80;12.65;;;;;;;22.56;77.32;99306.19;1745027;82;21023;-67
2021/07/17 03:19:04;;;;;;;15.25;11.83;;;;;;;22.68;77.19;99298.34;1750663;82;20955;-67
2021/07/17 03:21:31;;;;;;;14.55;11.33;;;;;;;22.72;76.68;99303.39;1752249;82;21533;-67
2021/07/17 03:23:57;;;;;;;12.20;10.90;;;;;;;22.77;76.48;99298.38;1734728;82;21026;-67
2021/07/17 03:26:24;;;;;;;12.58;10.40;;;;;;;22.85;76.10;99298.53;1744648;82;21624;-67
2021/07/17 03:28:51;;;;;;;13.53;10.05;;;;;;;22.95;75.99;99300.15;1732384;82;21015;-67
2021/07/17 03:31:21;;;;;;;13.50;11.12;;;;;;;23.10;75.79;99295.09;1736427;82;21062;-68
2021/07/17 03:33:47;;;;;;;12.68;11.33;;;;;;;23.29;75.69;99301.23;1725554;82;21034;-67
2021/07/17 03:36:14;;;;;;;13.83;11.22;;;;;;;23.52;75.29;99297.16;1711193;83;21094;-67
2021/07/17 03:38:41;;;;;;;11.70;10.45;;;;;;;23.77;74.53;99294.25;1734199;82;20998;-67
2021/07/17 03:41:07;;;;;;;13.95;11.50;;;;;;;24.00;73.67;99295.03;1740414;82;21078;-67
2021/07/17 03:43:33;;;;;;;15.00;10.38;;;;;;;24.11;72.85;99296.02;1747442;82;20999;-67
2021/07/17 03:46:00;;;;;;;14.05;11.70;;;;;;;24.20;72.35;99290.22;1750198;82;21019;-67
2021/07/17 03:48:26;;;;;;;14.35;12.80;;;;;;;24.20;72.35;99290.22;1750065;82;21038;-66
2021/07/17 03:50:53;;;;;;;14.80;12.07;;;;;;;24.38;71.96;99288.52;1733122;82;21023;-66
2021/07/17 03:53:19;;;;;;;15.05;11.38;;;;;;;24.76;71.66;99282.71;1735261;82;21030;-66
2021/07/17 03:55:46;;;;;;;14.90;11.30;;;;;;;25.10;70.96;99265.50;1736092;82;21029;-68
2021/07/17 03:58:12;;;;;;;18.65;13.20;;;;;;;25.38;67.96;99283.71;1723769;82;20991;-68
2021/07/17 04:00:38;;;;;;;14.07;10.70;;;;;;;25.38;67.96;99283.71;1731683;82;21011;-68
2021/07/17 04:03:06;;;;;;;15.72;11.05;;;;;;;25.34;67.85;99285.06;1737587;82;20983;-67
2021/07/17 04:05:32;;;;;;;13.40;11.18;;;;;;;25.30;67.75;99291.77;1734367;82;21082;-67
2021/07/17 04:07:59;;;;;;;14.03;12.10;;;;;;;25.38;67.59;99292.87;1724174;82;20960;-67
2021/07/17 04:10:25;;;;;;;14.45;11.38;;;;;;;25.47;67.49;99297.54;1749713;82;21045;-67
2021/07/17 04:12:51;;;;;;;15.70;12.35;;;;;;;25.47;67.49;99297.54;1745774;81;20956;-67
2021/07/17 04:15:19;;;;;;;16.05;12.65;;;;;;;25.56;67.13;99300.87;1738696;82;21047;-67
2021/07/17 04:17:45;;;;;;;16.82;12.53;;;;;;;25.69;67.04;99298.02;1724293;82;21886;-67
2021/07/17 04:20:12;;;;;;;16.75;12.65;;;;;;;25.81;66.91;99302.52;1718881;82;20972;-67
2021/07/17 04:22:39;;;;;;;18.82;12.73;;;;;;;25.92;66.97;99309.59;1716489;82;21019;-67
2021/07/17 04:25:06;;;;;;;15.95;12.98;;;;;;;26.08;66.63;99309.53;1713482;82;20996;-66
2021/07/17 04:27:34;;;;;;;16.93;12.40;;;;;;;26.26;66.42;99306.12;1726401;82;21031;-66
2021/07/17 04:30:01;;;;;;;16.40;12.68;;;;;;;26.39;65.63;99303.25;1721536;82;20944;-68
2021/07/17 04:32:27;;;;;;;14.63;11.97;;;;;;;26.46;65.39;99306.09;1713871;82;21050;-68
2021/07/17 04:34:54;;;;;;;13.53;12.10;;;;;;;26.58;65.29;99307.96;1731083;82;20943;-68
2021/07/17 04:37:20;;;;;;;17.90;13.13;;;;;;;26.77;65.15;99303.30;1724563;82;21090;-68
2021/07/17 04:39:49;;;;;;;18.20;12.82;;;;;;;26.91;64.57;99300.02;1724160;82;21490;-67
2021/07/17 04:42:16;;;;;;;15.93;12.78;;;;;;;27.09;64.74;99307.89;1735534;82;21506;-68
2021/07/17 04:44:44;;;;;;;20.43;12.63;;;;;;;27.34;63.61;99309.39;1733580;82;20932;-68
2021/07/17 04:47:10;;;;;;;20.97;12.00;;;;;;;27.43;62.52;99311.20;1719709;82;21076;-68
2021/07/17 04:49:37;;;;;;;18.32;11.50;;;;;;;27.48;62.55;99307.27;1714321;82;21072;-68
2021/07/17 04:52:04;;;;;;;14.78;11.25;;;;;;;27.55;62.06;99308.09;1711587;82;21029;-68
2021/07/17 04:54:30;;;;;;;14.23;11.03;;;;;;;27.61;61.48;99306.49;1728075;82;21514;-68
2021/07/17 04:56:56;;;;;;;16.27;10.78;;;;;;;27.66;61.35;99311.71;1737974;82;21042;-68
2021/07/17 04:59:23;;;;;;;13.95;10.48;;;;;;;27.66;61.23;99309.51;1739024;82;21054;-68
2021/07/17 05:01:49;;;;;;;13.83;9.60;;;;;;;27.73;61.25;99308.72;1742315;81;21024;-68
2021/07/17 05:04:16;;;;;;;12.78;10.08;;;;;;;27.80;60.87;99315.13;1728372;82;20964;-68
2021/07/17 05:06:42;;;;;;;13.38;10.53;;;;;;;27.86;60.75;99314.93;1710466;82;21497;-68
2021/07/17 05:09:08;;;;;;;11.40;10.20;;;;;;;27.89;60.16;99312.73;1721766;82;21568;-68
2021/07/17 05:11:35;;;;;;;10.23;8.90;;;;;;;27.98;60.34;99316.55;1738317;82;21047;-68
2021/07/17 05:14:01;;;;;;;13.43;10.28;;;;;;;28.06;59.62;99311.95;1746702;81;21007;-68
2021/07/17 05:16:28;;;;;;;11.35;9.03;;;;;;;28.14;59.88;99319.19;1719031;82;21661;-68
2021/07/17 05:18:54;;;;;;;11.60;9.30;;;;;;;28.28;59.42;99318.38;1739341;82;20981;-68
2021/07/17 05:21:21;;;;;;;11.40;9.50;;;;;;;28.37;59.60;99321.59;1682910;85;21549;-68
2021/07/17 05:23:48;;;;;;;10.58;9.48;;;;;;;28.62;59.56;99321.57;1731498;82;21043;-67
2021/07/17 05:26:14;;;;;;;10.38;8.25;;;;;;;28.76;58.55;99324.38;1745640;82;21074;-68
2021/07/17 05:28:40;;;;;;;11.57;8.45;;;;;;;28.91;58.04;99322.34;1729385;82;21022;-68
2021/07/17 05:31:07;;;;;;;12.47;8.58;;;;;;;29.02;57.58;99328.09;1731691;82;21131;-68
2021/07/17 05:33:33;;;;;;;9.73;8.10;;;;;;;29.21;58.20;99325.44;1745544;82;21038;-68
2021/07/17 05:36:00;;;;;;;10.23;8.50;;;;;;;29.48;56.62;99321.53;1736345;82;21054;-68
2021/07/17 05:38:27;;;;;;;10.63;8.25;;;;;;;29.71;55.63;99322.42;1740907;82;21450;-67
2021/07/17 05:40:53;;;;;;;10.10;8.00;;;;;;;29.93;56.27;99320.52;1731284;82;21015;-68
2021/07/17 05:43:20;;;;;;;11.28;7.90;;;;;;;30.30;55.17;99321.81;1734903;82;20987;-68
2021/07/17 05:45:48;;;;;;;9.23;8.03;;;;;;;30.52;53.20;99321.25;1751125;82;21014;-68
2021/07/17 05:48:15;;;;;;;12.25;7.70;;;;;;;30.61;52.35;99328.58;1753279;82;21030;-68
2021/07/17 05:50:41;;;;;;;10.38;7.95;;;;;;;30.62;52.24;99327.97;1740859;82;21051;-68
2021/07/17 05:53:08;;;;;;;9.68;8.00;;;;;;;30.64;52.56;99328.38;1669012;85;21015;-67
2021/07/17 05:55:35;;;;;;;9.68;7.40;;;;;;;30.82;52.58;99335.98;1711124;82;21041;-67
2021/07/17 05:58:01;;;;;;;10.58;7.70;;;;;;;31.03;51.79;99331.60;1749011;82;21039;-66
2021/07/17 06:00:28;;;;;;;10.78;7.45;;;;;;;31.43;50.24;99330.49;1740006;82;21011;-66
2021/07/17 06:02:55;;;;;;;9.48;7.20;;;;;;;31.69;50.24;99334.61;1752951;82;20987;-66
2021/07/17 06:05:21;;;;;;;11.22;7.55;;;;;;;31.85;50.19;99332.75;1752497;82;21043;-67
2021/07/17 06:07:49;;;;;;;9.05;6.90;;;;;;;32.17;48.79;99329.47;1686217;85;21023;-66
2021/07/17 06:10:16;;;;;;;8.23;7.10;;;;;;;32.32;46.64;99330.05;1729747;82;21086;-66
2021/07/17 06:12:42;;;;;;;8.90;7.12;;;;;;;32.26;47.40;99333.17;1744251;81;20963;-67
2021/07/17 06:15:09;;;;;;;8.33;7.53;;;;;;;32.33;47.06;99333.05;1736531;82;20968;-67
2021/07/17 06:17:36;;;;;;;7.92;6.72;;;;;;;32.39;47.92;99338.37;1750840;82;21029;-67
2021/07/17 06:20:04;;;;;;;9.48;6.28;;;;;;;32.44;47.55;99335.88;1738145;82;21481;-67
2021/07/17 06:22:30;;;;;;;8.98;6.70;;;;;;;32.48;45.71;99338.64;1751248;82;20971;-67
2021/07/17 06:24:57;;;;;;;8.73;6.60;;;;;;;32.68;45.38;99335.89;1752159;82;21034;-67
2021/07/17 06:27:23;;;;;;;9.83;6.60;;;;;;;32.95;44.45;99332.34;1750960;82;20947;-66
2021/07/17 06:29:51;;;;;;;8.80;6.80;;;;;;;33.05;43.88;99329.96;1750957;82;21022;-66
2021/07/17 06:32:18;;;;;;;8.55;6.85;;;;;;;33.25;43.52;99327.97;1753093;82;21544;-67
2021/07/17 06:34:46;;;;;;;8.70;6.72;;;;;;;33.33;42.70;99332.84;1740080;82;21003;-67
2021/07/17 06:37:12;;;;;;;9.35;6.80;;;;;;;33.28;42.41;99339.78;1726212;82;21062;-66
2021/07/17 06:39:39;;;;;;;8.98;7.05;;;;;;;33.25;42.29;99332.20;1735628;82;20975;-67
2021/07/17 06:42:05;;;;;;;8.45;7.10;;;;;;;33.03;42.20;99333.20;1665690;85;21574;-67
2021/07/17 06:44:31;;;;;;;10.88;6.17;;;;;;;32.89;43.23;99333.48;1731310;82;20994;-66
2021/07/17 06:46:58;;;;;;;9.93;7.28;;;;;;;32.90;41.82;99323.80;1742492;82;21506;-67
2021/07/17 06:49:25;;;;;;;10.82;6.95;;;;;;;32.98;42.77;99328.69;1748340;82;21015;-66
2021/07/17 06:51:52;;;;;;;8.80;7.12;;;;;;;33.19;43.38;99328.91;1731301;82;21628;-67
2021/07/17 06:54:19;;;;;;;9.43;7.05;;;;;;;33.47;42.06;99324.88;1723189;83;21079;-67
2021/07/17 06:56:47;;;;;;;9.60;6.90;;;;;;;33.77;41.00;99318.19;1730491;82;21045;-67
2021/07/17 06:59:13;;;;;;;8.63;7.20;;;;;;;33.95;40.87;99320.59;1745147;82;21042;-67
2021/07/17 07:01:40;;;;;;;10.88;7.45;;;;;;;34.04;40.45;99320.00;1744475;82;21003;-68
2021/07/17 07:04:07;;;;;;;9.90;7.30;;;;;;;33.87;39.74;99317.78;1739449;82;21039;-67
2021/07/17 07:06:33;;;;;;;9.25;6.78;;;;;;;33.95;39.79;99322.01;1747739;82;21042;-67
2021/07/17 07:09:00;;;;;;;9.48;7.03;;;;;;;34.13;40.13;99320.20;1736696;82;21031;-67
2021/07/17 07:11:27;;;;;;;8.13;6.10;;;;;;;34.23;41.25;99319.14;1727349;82;20991;-67
2021/07/17 07:13:53;;;;;;;7.50;6.10;;;;;;;34.44;40.15;99321.42;1732769;82;21010;-67
2021/07/17 07:16:19;;;;;;;6.97;6.28;;;;;;;34.33;40.29;99320.92;1746319;82;21486;-67
2021/07/17 07:18:46;;;;;;;10.98;7.03;;;;;;;34.23;41.06;99319.14;1735589;82;21003;-67
2021/07/17 07:21:12;;;;;;;7.62;6.30;;;;;;;34.12;39.65;99323.61;1741660;82;21004;-64
2021/07/17 07:23:39;;;;;;;8.88;6.22;;;;;;;33.99;38.99;99322.72;1742095;82;21443;-64
2021/07/17 07:26:06;;;;;;;8.48;6.28;;;;;;;34.11;39.53;99320.63;1738076;82;21920;-64
2021/07/17 07:28:32;;;;;;;7.00;5.80;;;;;;;34.34;39.09;99326.73;1733477;82;20975;-64
2021/07/17 07:30:59;;;;;;;7.67;6.50;;;;;;;34.32;38.47;99327.80;1752802;82;21526;-64
2021/07/17 07:33:25;;;;;;;6.92;6.12;;;;;;;34.22;38.32;99320.39;1750031;82;20999;-65
2021/07/17 07:35:52;;;;;;;8.15;6.17;;;;;;;34.30;37.98;99326.82;1741240;82;20999;-65
2021/07/17 07:38:18;;;;;;;8.45;6.28;;;;;;;34.41;39.04;99332.20;1737190;82;21615;-65
2021/07/17 07:40:45;;;;;;;6.60;5.40;;;;;;;34.30;38.33;99334.50;1752228;82;21075;-66
2021/07/17 07:43:11;;;;;;;8.23;5.92;;;;;;;34.27;37.54;99331.95;1727567;82;20959;-66
2021/07/17 07:45:38;;;;;;;8.73;6.10;;;;;;;34.51;38.34;99321.24;1746858;82;21047;-65
2021/07/17 07:48:05;;;;;;;7.75;5.80;;;;;;;34.76;36.92;99323.44;1681490;82;20979;-65
2021/07/17 07:50:31;;;;;;;7.83;6.00;;;;;;;34.93;36.87;99323.60;1725984;82;21042;-65
2021/07/17 07:52:59;;;;;;;9.33;6.37;;;;;;;35.30;38.44;99322.16;1730682;82;20968;-65
2021/07/17 07:55:25;;;;;;;8.85;6.12;;;;;;;35.65;36.55;99314.05;1750596;82;21047;-65
2021/07/17 07:57:52;;;;;;;9.50;6.12;;;;;;;35.74;35.16;99317.02;1733132;82;20971;-65
2021/07/17 08:00:19;;;;;;;11.83;6.50;;;;;;;35.66;35.76;99316.27;1734392;82;21075;-65
2021/07/17 08:02:45;;;;;;;9.70;6.05;;;;;;;35.51;35.59;99318.70;1726663;82;21485;-65
2021/07/17 08:05:11;;;;;;;6.83;6.08;;;;;;;35.36;37.07;99316.11;1739123;82;20995;-65
2021/07/17 08:07:38;;;;;;;10.18;6.00;;;;;;;35.43;37.37;99315.90;1724742;82;21482;-64
2021/07/17 08:10:06;;;;;;;7.78;5.67;;;;;;;35.54;37.08;99317.79;1723112;83;21077;-66
2021/07/17 08:12:33;;;;;;;9.73;6.40;;;;;;;35.50;36.76;99322.00;1708999;83;21338;-65
2021/07/17 08:14:59;;;;;;;8.13;5.78;;;;;;;35.53;36.81;99323.30;1712900;82;21051;-65
2021/07/17 08:17:25;;;;;;;7.25;5.75;;;;;;;35.44;36.05;99321.13;1709730;84;21008;-66
2021/07/17 08:19:52;;;;;;;9.23;5.95;;;;;;;35.02;37.40;99324.36;1711449;82;20999;-65
2021/07/17 08:22:18;;;;;;;7.53;6.00;;;;;;;34.68;38.39;99320.66;1709647;83;21071;-66
2021/07/17 08:24:45;;;;;;;7.20;5.65;;;;;;;34.57;38.47;99319.49;1711467;82;20967;-65
2021/07/17 08:28:51;;;;;;;11.25;6.58;;;;;;;34.67;38.07;99316.23;1818260;79;22946;-65
2021/07/17 08:31:17;;;;;;;8.43;6.22;;;;;;;34.63;38.51;99316.94;1771365;80;21029;-66
2021/07/17 08:33:44;;;;;;;9.08;6.80;;;;;;;34.56;38.92;99313.66;1760939;81;22009;-67
2021/07/17 08:36:10;;;;;;;7.80;6.40;;;;;;;34.35;39.15;99308.55;1761033;80;21021;-65
2021/07/17 08:38:37;;;;;;;8.10;6.33;;;;;;;34.28;39.77;99312.97;1761307;81;21560;-65
2021/07/17 08:41:07;;;;;;;8.33;6.42;;;;;;;34.11;39.49;99306.50;1761360;80;21014;-66
2021/07/17 08:43:35;;;;;;;9.15;6.50;;;;;;;33.90;39.03;99307.02;1760576;81;20977;-66
2021/07/17 08:46:01;;;;;;;9.35;6.25;;;;;;;33.70;38.43;99304.84;1758866;80;21057;-65
2021/07/17 08:48:27;;;;;;;8.48;6.53;;;;;;;33.67;38.37;99303.70;1761124;81;20986;-65
2021/07/17 08:50:54;;;;;;;9.15;6.37;;;;;;;33.82;39.89;99304.17;1729528;81;21094;-66
2021/07/17 08:53:20;;;;;;;8.43;6.22;;;;;;;33.83;38.50;99304.36;1714216;81;21610;-66
2021/07/17 08:55:47;;;;;;;9.10;6.35;;;;;;;33.65;38.12;99303.36;1760169;80;21085;-66
2021/07/17 08:58:13;;;;;;;8.45;6.20;;;;;;;33.57;41.28;99311.77;1761170;81;21053;-66
2021/07/17 09:00:42;;;;;;;7.78;6.05;;;;;;;33.59;39.76;99305.67;1761105;80;21085;-65
2021/07/17 09:03:11;;;;;;;8.78;6.45;;;;;;;33.48;40.78;99307.31;1751686;81;21027;-65
2021/07/17 09:05:42;;;;;;;9.65;6.45;;;;;;;33.21;43.01;99306.70;1761145;80;21017;-65
2021/07/17 09:08:07;;;;;;;7.92;6.10;;;;;;;33.08;43.60;99300.89;1760704;81;21516;-65
2021/07/17 09:10:42;;;;;;;6.75;6.05;;;;;;;33.24;42.39;99300.18;1726516;81;21038;-66
2021/07/17 09:13:28;;;;;;;8.25;6.30;;;;;;;33.61;40.70;99294.75;1737874;81;21469;-66
2021/07/17 09:16:07;;;;;;;8.43;5.75;;;;;;;34.07;40.79;99292.28;1750895;81;21018;-65
2021/07/17 09:18:54;;;;;;;7.75;6.33;;;;;;;34.56;39.04;99292.45;1727554;81;21562;-65
2021/07/17 09:21:30;;;;;;;7.12;5.78;;;;;;;34.78;35.43;99293.51;1742666;80;21015;-65
2021/07/17 09:24:12;;;;;;;8.15;5.78;;;;;;;34.65;37.07;99295.46;1758679;80;21037;-66
2021/07/17 09:26:40;;;;;;;8.53;5.90;;;;;;;34.66;36.32;99294.84;1756896;80;21029;-66
2021/07/17 09:29:09;;;;;;;6.90;5.60;;;;;;;34.41;37.57;99293.45;1733556;81;21107;-67
2021/07/17 09:31:53;;;;;;;8.23;5.85;;;;;;;34.30;37.54;99294.95;1759238;80;20979;-66
2021/07/17 09:34:23;;;;;;;9.65;5.90;;;;;;;34.34;38.99;99287.18;1765214;81;20947;-65
2021/07/17 09:37:00;;;;;;;6.58;5.62;;;;;;;34.35;37.72;99288.16;1759262;80;21116;-66
2021/07/17 09:39:39;;;;;;;7.70;5.60;;;;;;;34.14;37.97;99286.49;1766617;80;20950;-66
2021/07/17 09:42:08;;;;;;;7.78;5.70;;;;;;;33.81;38.38;99285.64;1759773;80;21045;-66
2021/07/17 09:44:35;;;;;;;6.95;5.40;;;;;;;33.70;39.09;99285.89;1768551;80;21321;-66
2021/07/17 09:47:04;;;;;;;10.28;5.75;;;;;;;33.64;39.01;99287.65;1760642;80;21035;-66
2021/07/17 09:49:32;;;;;;;10.40;5.55;;;;;;;33.66;39.07;99280.17;1755761;80;21021;-66
2021/07/17 09:52:13;;;;;;;10.72;5.97;;;;;;;33.61;39.26;99272.98;1759789;80;21065;-66
2021/07/17 09:54:41;;;;;;;10.58;5.67;;;;;;;33.61;40.18;99274.39;1752673;80;20959;-65
2021/07/17 09:57:08;;;;;;;10.08;5.53;;;;;;;33.55;40.17;99269.70;1729553;81;21657;-65
2021/07/17 09:59:35;;;;;;;7.22;5.67;;;;;;;33.33;40.92;99279.25;1723437;82;21585;-67
2021/07/17 10:02:01;;;;;;;6.95;5.40;;;;;;;33.13;41.79;99280.66;1721119;81;21046;-66
2021/07/17 10:04:28;;;;;;;6.87;6.05;;;;;;;33.12;41.50;99274.06;1677764;84;20962;-67
2021/07/17 10:06:59;;;;;;;6.80;5.80;;;;;;;33.34;40.11;99263.89;1704021;83;21090;-66
2021/07/17 10:09:34;;;;;;;8.23;6.33;;;;;;;33.70;40.16;99266.12;1712307;82;20948;-66
2021/07/17 10:12:08;;;;;;;6.85;5.78;;;;;;;33.99;37.67;99254.34;1696023;82;21062;-65
2021/07/17 10:14:39;;;;;;;7.85;6.10;;;;;;;34.38;36.30;99250.55;1701897;83;20999;-66
2021/07/17 10:17:11;;;;;;;8.35;5.87;;;;;;;34.61;35.78;99254.39;1698860;83;21039;-65
2021/07/17 10:19:39;;;;;;;6.37;5.35;;;;;;;34.76;35.89;99248.52;1707800;82;21404;-65
2021/07/17 10:22:06;;;;;;;7.87;6.20;;;;;;;34.85;35.28;99244.45;1707346;82;21035;-66
2021/07/17 10:24:33;;;;;;;9.68;6.00;;;;;;;34.56;36.14;99251.48;1699424;83;20967;-65
2021/07/17 10:27:00;;;;;;;7.55;5.75;;;;;;;34.06;36.79;99238.45;1703945;83;21050;-65
2021/07/17 10:29:27;;;;;;;7.72;5.95;;;;;;;33.81;37.09;99245.50;1748671;81;20994;-65
2021/07/17 10:31:59;;;;;;;11.25;6.60;;;;;;;33.51;39.05;99244.39;1748828;81;21049;-64
2021/07/17 10:34:25;;;;;;;11.95;5.87;;;;;;;33.23;40.49;99241.56;1724412;82;20963;-65
2021/07/17 10:37:02;;;;;;;7.87;5.40;;;;;;;33.04;40.06;99238.94;1730781;81;21552;-66
2021/07/17 10:39:38;;;;;;;8.90;6.25;;;;;;;33.02;39.06;99238.56;1708032;82;21447;-67
2021/07/17 10:42:19;;;;;;;8.93;6.28;;;;;;;33.02;37.32;99234.33;1679802;84;21136;-67
2021/07/17 10:44:49;;;;;;;10.82;6.75;;;;;;;33.18;40.22;99233.64;1737529;81;20993;-69
2021/07/17 10:47:16;;;;;;;7.95;5.83;;;;;;;33.50;41.28;99224.45;1733428;81;21099;-66
2021/07/17 10:49:52;;;;;;;8.65;6.22;;;;;;;33.85;38.76;99219.40;1733742;81;21018;-67
2021/07/17 10:52:41;;;;;;;6.62;5.90;;;;;;;34.15;37.24;99209.80;1748624;81;21011;-68
2021/07/17 10:55:30;;;;;;;7.53;6.08;;;;;;;34.45;38.02;99209.99;1748449;81;20974;-65
2021/07/17 10:58:14;;;;;;;10.85;6.87;;;;;;;34.66;37.62;99202.37;1747120;81;21007;-65
2021/07/17 11:00:48;;;;;;;8.18;6.62;;;;;;;34.57;35.82;99197.97;1747668;81;21573;-67
2021/07/17 11:03:28;;;;;;;8.13;5.70;;;;;;;34.70;36.88;99191.75;1750418;81;20984;-67
2021/07/17 11:05:54;;;;;;;8.48;5.80;;;;;;;34.95;36.05;99191.83;1744292;80;21007;-67
2021/07/17 11:08:38;;;;;;;12.15;5.87;;;;;;;35.15;34.86;99188.82;1745530;81;21010;-67
2021/07/17 11:11:33;;;;;;;7.42;5.58;;;;;;;35.24;33.75;99179.06;1705037;81;20972;-66
2021/07/17 11:14:16;;;;;;;7.00;5.43;;;;;;;35.25;33.56;99172.13;1746859;81;20984;-66
2021/07/17 11:16:48;;;;;;;7.60;5.83;;;;;;;35.25;34.32;99170.72;1746402;80;21524;-68
2021/07/17 11:19:24;;;;;;;7.05;5.25;;;;;;;35.27;34.37;99168.25;1747389;81;20995;-68
2021/07/17 11:21:51;;;;;;;;;;;;;;;35.27;34.44;99163.20;1744059;81;21058;-67
2021/07/17 11:24:19;;;;;;;8.30;6.15;;;;;;;35.28;34.08;99153.48;1711241;82;20111;-68
2021/07/17 11:26:46;;;;;;;7.25;5.70;;;;;;;35.31;33.43;99144.09;1741890;80;21027;-65
2021/07/17 11:29:14;;;;;;;8.25;6.25;;;;;;;35.56;34.01;99144.08;1753164;81;21012;-66
2021/07/17 11:31:47;;;;;;;9.08;6.08;;;;;;;35.83;35.84;99145.00;1749820;80;21652;-65
2021/07/17 11:34:27;;;;;;;7.00;5.78;;;;;;;36.10;34.02;99151.61;1749337;81;21054;-69